Time;durP1;ratioP1;P1;durP2;ratioP2;P2;SDS_P1;SDS_P2;PMS_P1;PMS_P2;Temp;Humidity;BMP_temperature;BMP_pressure;BME280_temperature;BME280_humidity;BME280_pressure;Samples;Min_cycle;Max_cycle;Signal;HPM_P1;HPM_P2
2024/04/15 00:00:29;;;;;;;3.53;2.60;;;18.20;59.40;;;19.96;46.58;97427.63;5448777;26;20383;-40
2024/04/15 00:02:57;;;;;;;5.93;3.25;;;18.20;59.40;;;19.94;46.62;97424.34;5449332;26;20030;-40
2024/04/15 00:05:25;;;;;;;5.32;2.85;;;18.20;59.90;;;19.90;46.80;97425.03;5448367;26;20038;-40
2024/04/15 00:07:53;;;;;;;4.10;2.70;;;18.10;60.20;;;19.84;47.09;97421.34;5448612;26;20050;-40
2024/04/15 00:10:21;;;;;;;3.35;2.45;;;18.00;60.40;;;19.81;46.85;97421.78;5451585;26;20034;-40
2024/04/15 00:12:51;;;;;;;2.78;2.50;;;18.00;60.50;;;19.81;47.16;97427.19;5452318;26;20047;-40
2024/04/15 00:15:19;;;;;;;4.63;3.10;;;18.00;60.80;;;19.79;47.24;97435.56;5452167;26;20043;-40
2024/04/15 00:17:49;;;;;;;3.05;2.65;;;18.00;61.10;;;19.75;47.49;97453.22;5452301;26;20038;-40
2024/04/15 00:20:17;;;;;;;3.03;2.55;;;17.90;61.70;;;19.60;47.97;97452.72;5450877;26;20296;-40
2024/04/15 00:22:44;;;;;;;6.90;3.63;;;17.80;63.20;;;19.42;48.18;97448.97;5452719;26;20027;-40
2024/04/15 00:25:13;;;;;;;3.15;2.47;;;17.50;64.00;;;19.37;48.33;97432.63;5451541;26;20373;-40
2024/04/15 00:27:41;;;;;;;3.10;2.33;;;17.50;63.50;;;19.37;48.04;97429.94;5452143;26;20043;-40
2024/04/15 00:30:10;;;;;;;4.32;2.60;;;17.50;62.70;;;19.31;48.02;97429.97;5452089;26;20038;-40
2024/04/15 00:32:37;;;;;;;4.35;2.60;;;17.50;62.30;;;19.23;47.93;97433.78;5452040;26;20035;-40
2024/04/15 00:35:05;;;;;;;3.10;2.50;;;17.50;61.50;;;19.09;47.84;97433.06;5451019;26;20035;-40
2024/04/15 00:37:33;;;;;;;2.75;2.33;;;17.50;61.20;;;18.91;48.40;97427.66;5437395;26;20463;-40
2024/04/15 00:40:01;;;;;;;3.35;2.30;;;17.30;62.00;;;18.76;48.45;97419.84;5451318;26;20359;-40
2024/04/15 00:42:29;;;;;;;3.00;1.98;;;17.20;62.20;;;18.67;48.91;97414.72;5450240;26;20038;-40
2024/04/15 00:44:56;;;;;;;3.75;2.13;;;17.10;63.30;;;18.74;48.88;97395.78;5451398;26;20474;-40
2024/04/15 00:47:24;;;;;;;2.33;2.08;;;17.10;63.20;;;18.63;49.07;97380.31;5452072;26;20044;-41
2024/04/15 00:49:52;;;;;;;3.40;2.00;;;17.10;63.30;;;18.64;49.00;97384.66;5419061;26;20035;-41
2024/04/15 00:52:20;;;;;;;2.67;1.88;;;17.00;63.30;;;18.46;49.23;97383.53;5451474;26;20039;-39
2024/04/15 00:54:48;;;;;;;6.03;3.20;;;16.90;63.90;;;18.47;49.13;97371.72;5450618;26;20031;-39
2024/04/15 00:57:16;;;;;;;2.40;2.17;;;16.90;63.90;;;18.39;49.71;97371.97;5450082;26;20051;-39
2024/04/15 00:59:43;;;;;;;3.45;2.10;;;16.70;64.80;;;18.33;49.53;97366.66;5451559;26;20054;-39
2024/04/15 01:02:11;;;;;;;4.90;2.53;;;16.70;65.10;;;18.22;50.10;97376.22;5389807;26;20493;-39
2024/04/15 01:04:39;;;;;;;7.07;2.83;;;16.60;65.40;;;18.25;49.92;97382.03;5417940;26;20437;-39
2024/04/15 01:07:07;;;;;;;3.55;2.20;;;16.60;65.00;;;18.20;50.16;97381.00;5420175;26;20039;-39
2024/04/15 01:09:35;;;;;;;4.00;2.75;;;16.50;66.30;;;18.14;50.68;97365.72;5389433;26;20035;-40
2024/04/15 01:12:03;;;;;;;3.95;2.33;;;16.50;67.30;;;17.99;51.85;97358.75;5451466;26;20043;-39
2024/04/15 01:14:30;;;;;;;4.30;3.30;;;16.40;68.80;;;18.03;51.78;97351.06;5403711;26;20136;-40
2024/04/15 01:16:58;;;;;;;3.15;2.85;;;16.40;69.80;;;18.06;51.87;97356.03;5419764;26;20026;-39
2024/04/15 01:19:26;;;;;;;3.35;2.63;;;16.40;69.60;;;18.01;51.84;97355.84;5450999;26;20035;-39
2024/04/15 01:21:54;;;;;;;5.28;3.00;;;16.30;70.80;;;17.99;52.21;97363.31;5450192;26;20377;-40
2024/04/15 01:24:22;;;;;;;5.45;3.20;;;16.30;70.70;;;17.93;52.63;97359.59;5451085;26;20031;-40
2024/04/15 01:26:49;;;;;;;3.58;2.53;;;16.30;70.90;;;17.86;52.88;97353.44;5451821;26;20039;-39
2024/04/15 01:29:17;;;;;;;5.43;2.97;;;16.30;72.40;;;17.86;52.84;97350.75;5451365;26;20035;-40
2024/04/15 01:31:45;;;;;;;3.55;2.50;;;16.30;72.60;;;17.88;52.58;97359.44;5450926;26;20048;-40
2024/04/15 01:34:12;;;;;;;4.40;2.97;;;16.20;72.20;;;17.84;52.91;97350.13;5450264;26;20070;-39
2024/04/15 01:36:40;;;;;;;5.53;3.00;;;16.10;72.50;;;17.68;53.57;97344.19;5419801;26;20358;-39
2024/04/15 01:39:08;;;;;;;4.80;3.10;;;16.00;73.40;;;17.62;53.63;97341.50;5451300;26;20035;-39
2024/04/15 01:41:37;;;;;;;3.95;2.88;;;15.90;73.30;;;17.57;53.49;97342.16;5448996;26;20039;-40
2024/04/15 01:44:05;;;;;;;7.50;4.22;;;15.90;73.20;;;17.53;53.77;97343.63;5419391;26;20047;-39
2024/04/15 01:46:33;;;;;;;3.40;2.42;;;15.90;72.80;;;17.53;53.51;97349.00;5450768;26;20035;-39
2024/04/15 01:49:00;;;;;;;3.78;2.22;;;15.90;72.00;;;17.48;53.27;97340.72;5450868;26;20043;-40
2024/04/15 01:51:30;;;;;;;3.38;2.60;;;15.90;70.80;;;17.46;52.99;97326.66;5451100;26;20034;-39
2024/04/15 01:53:58;;;;;;;5.28;2.60;;;15.80;70.00;;;17.44;52.43;97324.16;5450250;26;20237;-39
2024/04/15 01:56:25;;;;;;;4.07;2.47;;;15.80;69.90;;;17.39;52.42;97309.69;5418860;26;20034;-40
2024/04/15 01:58:53;;;;;;;6.18;2.47;;;15.80;68.80;;;17.49;51.66;97305.53;5450887;26;20042;-39
2024/04/15 02:01:21;;;;;;;3.97;2.28;;;15.90;68.00;;;17.64;51.78;97312.50;5450966;26;20031;-40
2024/04/15 02:03:49;;;;;;;2.30;2.08;;;16.10;67.10;;;17.76;51.28;97323.41;5450435;26;20035;-39
2024/04/15 02:06:17;;;;;;;3.90;2.40;;;16.20;66.20;;;17.83;50.80;97343.06;5418007;26;20035;-40
2024/04/15 02:08:45;;;;;;;3.40;2.13;;;16.30;65.70;;;17.88;50.67;97345.97;5450557;26;20365;-40
2024/04/15 02:11:13;;;;;;;4.82;2.45;;;16.40;65.60;;;17.86;51.06;97353.44;5451022;26;20030;-40
2024/04/15 02:13:41;;;;;;;3.42;2.45;;;16.50;65.50;;;17.88;50.71;97344.09;5449988;26;20063;-40
2024/04/15 02:16:08;;;;;;;3.05;2.58;;;16.50;65.80;;;17.95;50.72;97333.31;5418475;26;20035;-39
2024/04/15 02:18:36;;;;;;;2.40;2.20;;;16.40;65.70;;;18.00;50.93;97325.38;5450652;26;20030;-39
2024/04/15 02:21:04;;;;;;;3.13;2.17;;;16.40;65.40;;;18.00;50.77;97327.25;5450747;26;20030;-40
2024/04/15 02:23:32;;;;;;;3.08;1.90;;;16.40;65.30;;;17.93;49.94;97321.91;5450358;26;20032;-39
2024/04/15 02:25:59;;;;;;;4.07;2.25;;;16.30;64.60;;;17.86;49.47;97313.06;5417847;26;20470;-39
2024/04/15 02:28:27;;;;;;;3.80;2.05;;;16.30;62.80;;;17.73;49.23;97323.84;5450606;26;20373;-39
2024/04/15 02:30:55;;;;;;;3.53;2.08;;;16.20;63.20;;;17.73;49.45;97310.41;5450563;26;20039;-39
2024/04/15 02:33:23;;;;;;;4.88;2.03;;;16.20;63.00;;;17.64;49.44;97315.19;5447825;26;20030;-39
2024/04/15 02:35:50;;;;;;;3.10;1.90;;;16.10;62.20;;;17.59;49.12;97313.16;5450382;26;20483;-39
2024/04/15 02:38:18;;;;;;;6.03;2.50;;;16.00;61.90;;;17.58;48.95;97310.66;5408742;26;20044;-39
2024/04/15 02:40:46;;;;;;;2.50;1.85;;;16.00;62.20;;;17.59;49.36;97306.94;5401951;26;20470;-39
2024/04/15 02:43:14;;;;;;;5.50;2.13;;;16.00;62.50;;;17.54;48.78;97296.81;5450601;26;20400;-39
2024/04/15 02:45:42;;;;;;;2.78;2.13;;;15.90;63.00;;;17.45;50.08;97309.69;5448426;26;20042;-39
2024/04/15 02:48:10;;;;;;;2.60;2.10;;;15.80;64.70;;;17.44;50.46;97304.53;5450290;26;20513;-39
2024/04/15 02:50:37;;;;;;;4.47;2.78;;;15.80;65.80;;;17.43;50.58;97313.66;5450073;26;20359;-39
2024/04/15 02:53:05;;;;;;;3.75;2.65;;;15.70;67.30;;;17.40;50.82;97296.03;5450659;26;20030;-40
2024/04/15 02:55:33;;;;;;;5.80;3.38;;;15.70;67.80;;;17.32;51.17;97291.72;5449866;26;20471;-39
2024/04/15 02:58:01;;;;;;;7.85;3.55;;;15.50;67.90;;;17.29;51.30;97310.16;5448963;26;20027;-40
2024/04/15 03:00:32;;;;;;;4.85;3.63;;;15.50;68.20;;;17.33;51.28;97289.84;5449563;26;20043;-39
2024/04/15 03:03:00;;;;;;;6.18;4.15;;;15.50;68.70;;;17.36;51.03;97277.84;5418860;26;20039;-39
2024/04/15 03:05:28;;;;;;;6.18;3.70;;;15.50;68.50;;;17.30;51.13;97283.03;5448815;26;20085;-39
2024/04/15 03:07:55;;;;;;;6.57;4.43;;;15.50;68.70;;;17.13;51.77;97314.13;5449926;26;20051;-40
2024/04/15 03:10:25;;;;;;;5.35;4.25;;;15.40;69.50;;;16.92;52.27;97313.38;5449764;26;20046;-39
2024/04/15 03:12:54;;;;;;;6.50;4.32;;;15.10;70.10;;;16.99;51.71;97299.91;5418168;26;20017;-40
2024/04/15 03:15:22;;;;;;;8.07;4.72;;;15.10;69.30;;;16.96;51.38;97312.94;5411523;26;20035;-39
2024/04/15 03:17:50;;;;;;;7.03;4.95;;;15.10;69.00;;;16.90;51.19;97296.63;5449949;26;20047;-39
2024/04/15 03:20:18;;;;;;;6.47;5.10;;;15.10;67.90;;;16.86;51.04;97289.16;5448601;26;20027;-39
2024/04/15 03:22:50;;;;;;;6.97;4.78;;;15.00;67.50;;;16.80;50.87;97277.34;5449830;26;20035;-40
2024/04/15 03:25:19;;;;;;;6.75;5.03;;;14.90;67.60;;;16.84;50.63;97291.25;5449222;26;20107;-40
2024/04/15 03:27:51;;;;;;;7.07;4.50;;;15.00;66.80;;;16.84;50.44;97292.06;5446597;26;20031;-40
2024/04/15 03:30:18;;;;;;;7.10;5.05;;;15.00;66.70;;;16.84;50.43;97278.63;5449659;26;20043;-40
2024/04/15 03:32:46;;;;;;;6.18;4.65;;;15.00;66.00;;;16.87;49.90;97256.69;5419962;26;20403;-40
2024/04/15 03:35:15;;;;;;;8.55;4.72;;;15.00;65.80;;;16.87;49.60;97264.78;5449080;26;20031;-39
2024/04/15 03:37:43;;;;;;;8.65;5.28;;;15.00;65.50;;;16.85;49.74;97272.22;5448201;26;20042;-40
2024/04/15 03:40:11;;;;;;;6.60;5.63;;;15.00;65.20;;;16.90;49.92;97268.88;5448628;26;20343;-39
2024/04/15 03:42:39;;;;;;;6.85;4.88;;;15.10;65.30;;;16.87;49.98;97272.00;5449586;26;20494;-40
2024/04/15 03:45:06;;;;;;;10.48;5.38;;;15.00;65.80;;;16.88;49.89;97254.84;5452089;26;20085;-40
2024/04/15 03:47:35;;;;;;;6.80;4.97;;;15.00;66.00;;;16.84;49.82;97234.78;5452812;26;20039;-40
2024/04/15 03:50:03;;;;;;;7.13;5.75;;;14.90;66.20;;;16.82;50.36;97224.25;5452863;26;20040;-40
2024/04/15 03:52:31;;;;;;;6.07;4.97;;;15.00;66.20;;;16.79;50.54;97227.34;5451233;26;20058;-40
2024/04/15 03:54:59;;;;;;;8.90;5.35;;;14.90;67.60;;;16.81;50.66;97232.47;5420058;26;20038;-39
2024/04/15 03:57:28;;;;;;;7.57;5.10;;;15.00;67.10;;;16.80;50.90;97250.47;5452495;26;20034;-40
2024/04/15 03:59:56;;;;;;;7.55;5.30;;;15.00;67.70;;;16.85;51.24;97250.72;5452272;26;20044;-40
2024/04/15 04:02:24;;;;;;;7.13;5.22;;;15.00;68.70;;;16.87;51.24;97254.00;5452468;26;20040;-39
2024/04/15 04:04:52;;;;;;;5.35;4.57;;;15.00;68.70;;;16.87;51.41;97243.25;5419513;26;20031;-40
2024/04/15 04:07:21;;;;;;;6.57;5.10;;;15.10;68.80;;;16.88;50.94;97234.13;5452622;26;20030;-40
2024/04/15 04:09:49;;;;;;;6.20;3.97;;;15.00;68.40;;;16.87;51.00;97247.81;5452733;26;20035;-40
2024/04/15 04:12:17;;;;;;;5.68;4.03;;;15.00;68.30;;;16.87;51.42;97270.16;5451974;26;20031;-39
2024/04/15 04:14:45;;;;;;;7.03;4.25;;;15.10;68.60;;;16.93;51.20;97273.84;5452164;26;20034;-40
2024/04/15 04:17:13;;;;;;;6.18;4.15;;;15.20;68.30;;;16.96;51.80;97286.88;5452329;26;20027;-40
2024/04/15 04:19:41;;;;;;;6.47;3.80;;;15.20;68.80;;;16.87;51.76;97272.00;5390779;26;20385;-40
2024/04/15 04:22:08;;;;;;;6.82;3.90;;;15.10;69.30;;;16.86;51.55;97262.28;5420702;26;20047;-39
2024/04/15 04:24:37;;;;;;;5.45;4.00;;;15.10;69.20;;;16.91;52.04;97252.56;5450510;26;20034;-39
2024/04/15 04:27:05;;;;;;;7.40;3.00;;;15.20;69.40;;;16.91;51.95;97249.88;5451861;26;20058;-40
2024/04/15 04:29:34;;;;;;;6.00;3.45;;;15.20;69.00;;;16.79;51.95;97258.75;5452281;26;20134;-40
2024/04/15 04:32:02;;;;;;;4.75;3.00;;;15.00;69.50;;;16.80;51.65;97265.78;5452073;26;20443;-39
2024/04/15 04:34:33;;;;;;;3.63;2.58;;;15.10;68.90;;;16.83;51.84;97282.34;5419914;26;20460;-39
2024/04/15 04:37:01;;;;;;;6.28;3.00;;;15.20;68.40;;;16.91;52.65;97273.25;5421229;26;20038;-39
2024/04/15 04:39:29;;;;;;;3.70;3.00;;;15.20;72.10;;;16.89;53.49;97264.56;5452058;26;20035;-39
2024/04/15 04:41:57;;;;;;;3.60;2.17;;;15.10;73.60;;;16.92;53.36;97280.25;5436803;26;20031;-39
2024/04/15 04:44:25;;;;;;;4.13;2.70;;;15.10;73.10;;;16.92;53.49;97283.78;5451557;26;20714;-39
2024/04/15 04:46:53;;;;;;;3.70;2.80;;;15.10;74.30;;;16.89;53.74;97276.13;5451480;26;20366;-39
2024/04/15 04:49:21;;;;;;;3.92;2.83;;;15.00;74.00;;;16.90;53.52;97258.13;5451564;26;20030;-39
2024/04/15 04:51:49;;;;;;;5.28;2.95;;;15.00;75.00;;;16.87;54.19;97248.63;5452152;26;20043;-39
2024/04/15 04:54:17;;;;;;;5.38;2.95;;;14.90;75.40;;;16.77;54.18;97252.75;5450884;26;20034;-39
2024/04/15 04:56:45;;;;;;;7.68;2.67;;;14.80;75.80;;;16.73;54.74;97258.56;5417040;26;20039;-39
2024/04/15 04:59:13;;;;;;;7.55;3.58;;;14.80;76.70;;;16.74;54.61;97276.34;5451529;26;20031;-40
2024/04/15 05:01:41;;;;;;;4.90;3.00;;;14.80;77.70;;;16.75;54.50;97271.81;5451674;26;20474;-39
2024/04/15 05:04:10;;;;;;;3.35;2.70;;;14.80;77.90;;;16.73;54.59;97272.00;5417826;26;20026;-39
2024/04/15 05:06:38;;;;;;;5.97;2.72;;;14.80;77.30;;;16.77;54.90;97274.25;5451450;26;20043;-40
2024/04/15 05:09:06;;;;;;;5.65;2.80;;;14.80;76.10;;;16.77;54.92;97267.03;5451534;26;20030;-39
2024/04/15 05:11:38;;;;;;;4.47;2.50;;;14.90;77.30;;;16.79;54.67;97274.88;5450273;26;20407;-40
2024/04/15 05:14:06;;;;;;;4.25;2.28;;;14.80;76.50;;;16.73;54.10;97269.31;5451148;26;20035;-40
2024/04/15 05:16:34;;;;;;;6.35;2.60;;;14.80;76.60;;;16.71;54.37;97273.22;5451290;26;20509;-39
2024/04/15 05:19:02;;;;;;;3.85;2.55;;;14.70;76.70;;;16.69;54.94;97275.31;5413571;26;20040;-40
2024/04/15 05:21:29;;;;;;;2.97;2.53;;;14.70;77.10;;;16.68;54.51;97292.47;5429479;26;20031;-39
2024/04/15 05:24:00;;;;;;;2.88;2.15;;;14.70;76.80;;;16.65;54.35;97298.25;5436371;26;20030;-39
2024/04/15 05:26:28;;;;;;;3.28;2.10;;;14.70;76.10;;;16.66;54.58;97302.63;5413420;26;20040;-39
2024/04/15 05:28:56;;;;;;;2.95;2.08;;;14.70;76.50;;;16.61;54.21;97310.47;5450756;26;20497;-39
2024/04/15 05:31:23;;;;;;;3.63;2.13;;;14.60;75.50;;;16.57;54.50;97310.03;5451203;26;20483;-40
2024/04/15 05:33:52;;;;;;;4.75;2.28;;;14.60;77.00;;;16.55;54.34;97312.13;5450900;26;20034;-39
2024/04/15 05:36:20;;;;;;;3.63;2.08;;;14.60;76.50;;;16.53;54.47;97311.50;5450951;26;20038;-40
2024/04/15 05:38:48;;;;;;;3.53;2.33;;;14.60;75.40;;;16.51;53.99;97314.38;5449895;26;20035;-39
2024/04/15 05:41:15;;;;;;;3.25;1.75;;;14.60;75.30;;;16.53;54.44;97312.31;5417871;26;20017;-39
2024/04/15 05:43:43;;;;;;;5.35;2.08;;;14.60;76.00;;;16.50;54.21;97312.75;5451066;26;20035;-39
2024/04/15 05:46:11;;;;;;;3.60;2.03;;;14.60;74.70;;;16.37;54.45;97309.25;5451294;26;20030;-38
2024/04/15 05:48:39;;;;;;;4.03;2.42;;;14.50;75.10;;;16.42;54.42;97309.44;5450974;26;20046;-38
2024/04/15 05:51:06;;;;;;;2.03;1.80;;;14.60;75.50;;;16.31;54.02;97309.03;5451056;26;20034;-38
2024/04/15 05:53:34;;;;;;;2.50;2.05;;;14.40;73.80;;;16.16;54.30;97303.00;5450444;26;20039;-39
2024/04/15 05:56:02;;;;;;;5.43;2.83;;;14.30;75.80;;;16.18;54.16;97308.19;5451261;26;20462;-38
2024/04/15 05:58:30;;;;;;;2.58;1.92;;;14.30;75.40;;;16.22;54.27;97304.88;5450682;26;20031;-39
2024/04/15 06:00:58;;;;;;;2.15;1.88;;;14.30;75.00;;;16.19;53.97;97301.78;5451195;26;20490;-39
2024/04/15 06:03:26;;;;;;;4.22;2.30;;;14.30;74.20;;;16.16;54.26;97299.50;5417924;26;20038;-39
2024/04/15 06:05:54;;;;;;;4.65;2.00;;;14.30;74.00;;;16.07;54.02;97288.97;5450301;26;20023;-39
2024/04/15 06:08:22;;;;;;;2.75;2.13;;;14.30;73.70;;;16.11;53.99;97294.72;5449776;26;20023;-39
2024/04/15 06:10:50;;;;;;;4.82;1.70;;;14.30;73.10;;;16.08;54.30;97289.78;5388493;26;20039;-39
2024/04/15 06:13:19;;;;;;;4.82;1.63;;;14.30;74.00;;;16.03;53.56;97290.41;5450945;26;20046;-39
2024/04/15 06:15:47;;;;;;;4.40;2.15;;;14.30;72.70;;;15.87;54.06;97288.09;5450209;26;20035;-39
2024/04/15 06:18:16;;;;;;;3.42;1.90;;;14.10;73.00;;;15.75;54.09;97283.31;5450880;26;20039;-39
2024/04/15 06:20:44;;;;;;;4.25;2.35;;;14.00;73.60;;;15.81;53.99;97284.38;5448066;26;20495;-39
2024/04/15 06:23:12;;;;;;;2.97;2.00;;;13.90;74.00;;;15.71;54.29;97291.97;5450370;26;20046;-39
2024/04/15 06:25:40;;;;;;;3.72;2.28;;;13.90;74.00;;;15.68;54.24;97292.34;5449811;26;20529;-39
2024/04/15 06:28:08;;;;;;;2.45;1.85;;;13.90;73.90;;;15.69;54.84;97296.72;5450590;26;20038;-38
2024/04/15 06:30:37;;;;;;;4.53;2.30;;;13.90;74.30;;;15.54;55.05;97300.34;5448422;26;20043;-39
2024/04/15 06:33:05;;;;;;;4.50;2.20;;;13.80;74.90;;;15.57;54.90;97285.72;5450152;26;20451;-39
2024/04/15 06:35:33;;;;;;;3.67;2.15;;;13.80;75.40;;;15.58;54.86;97289.25;5449913;26;20463;-39
2024/04/15 06:38:00;;;;;;;3.45;2.70;;;13.80;75.60;;;15.50;55.08;97299.09;5450201;26;20039;-39
2024/04/15 06:40:30;;;;;;;5.53;2.95;;;13.70;75.20;;;15.45;55.10;97293.53;5450302;26;20043;-39
2024/04/15 06:42:58;;;;;;;3.05;2.72;;;13.70;75.80;;;15.32;55.07;97305.03;5450597;26;20479;-39
2024/04/15 06:45:26;;;;;;;4.20;2.97;;;13.60;75.00;;;15.24;55.42;97296.34;5449226;26;20034;-39
2024/04/15 06:47:53;;;;;;;4.65;2.88;;;13.60;76.60;;;15.26;55.58;97294.28;5450175;26;20039;-39
2024/04/15 06:50:21;;;;;;;3.60;2.30;;;13.60;75.30;;;15.25;55.19;97281.88;5450457;26;20042;-39
2024/04/15 06:52:49;;;;;;;4.00;3.03;;;13.70;74.80;;;15.33;55.13;97276.34;5448164;26;20058;-39
2024/04/15 06:55:17;;;;;;;3.97;2.80;;;13.70;74.60;;;15.42;55.08;97277.84;5416643;26;20039;-39
2024/04/15 06:57:45;;;;;;;2.85;2.30;;;13.80;74.50;;;15.46;54.81;97280.94;5450169;26;20007;-39
2024/04/15 07:00:14;;;;;;;4.28;2.38;;;13.80;73.50;;;15.48;54.94;97292.31;5450432;26;20030;-39
2024/04/15 07:02:42;;;;;;;4.57;2.60;;;13.90;73.40;;;15.55;55.07;97301.22;5417749;26;20034;-39
2024/04/15 07:05:09;;;;;;;3.33;2.33;;;13.90;73.70;;;15.51;54.74;97302.66;5449357;26;20043;-39
2024/04/15 07:07:37;;;;;;;4.30;2.30;;;13.90;73.90;;;15.36;55.12;97300.91;5448451;26;20042;-39
2024/04/15 07:10:06;;;;;;;3.20;2.42;;;13.70;73.60;;;15.34;55.12;97302.16;5449584;26;20350;-39
2024/04/15 07:12:34;;;;;;;3.92;2.63;;;13.70;74.60;;;15.30;55.34;97308.94;5417950;26;20494;-38
2024/04/15 07:15:02;;;;;;;5.20;2.70;;;13.60;75.00;;;15.25;55.58;97312.22;5449468;26;20030;-39
2024/04/15 07:17:30;;;;;;;6.40;2.58;;;13.60;75.00;;;15.27;55.59;97315.50;5416546;26;20035;-39
2024/04/15 07:19:58;;;;;;;5.85;3.40;;;13.60;75.20;;;15.13;55.94;97313.81;5449808;26;20031;-39
2024/04/15 07:22:26;;;;;;;5.30;3.20;;;13.60;75.10;;;15.09;56.22;97320.59;5449744;26;20035;-39
2024/04/15 07:24:53;;;;;;;7.13;3.03;;;13.60;75.80;;;15.22;56.25;97304.56;5449290;26;20035;-39
2024/04/15 07:27:21;;;;;;;4.88;3.38;;;13.70;75.60;;;15.32;56.00;97306.91;5449786;26;20043;-39
2024/04/15 07:29:49;;;;;;;6.38;3.08;;;13.80;75.60;;;15.48;55.74;97295.81;5417684;26;20487;-39
2024/04/15 07:32:17;;;;;;;8.93;3.10;;;14.00;75.20;;;15.40;56.11;97300.53;5449524;26;20038;-39
2024/04/15 07:34:45;;;;;;;5.93;3.17;;;13.90;75.40;;;15.46;56.08;97289.00;5447969;26;20471;-39
2024/04/15 07:37:13;;;;;;;4.15;3.03;;;14.00;76.00;;;15.56;55.93;97284.88;5397436;26;20035;-39
2024/04/15 07:39:41;;;;;;;4.43;3.00;;;14.00;76.90;;;15.56;56.31;97281.38;5409899;26;20034;-39
2024/04/15 07:42:09;;;;;;;7.30;3.65;;;13.90;76.50;;;15.60;56.19;97273.75;5448622;26;20026;-39
2024/04/15 07:44:37;;;;;;;5.10;2.88;;;14.00;76.90;;;15.67;56.30;97267.38;5449507;26;20043;-39
2024/04/15 07:47:05;;;;;;;8.32;3.95;;;14.00;76.90;;;15.65;56.45;97274.81;5416918;26;20026;-39
2024/04/15 07:49:35;;;;;;;5.05;3.45;;;14.00;77.60;;;15.66;56.69;97281.00;5449066;26;20047;-39
2024/04/15 07:52:03;;;;;;;6.57;3.42;;;13.90;78.70;;;15.40;57.42;97276.38;5417751;26;20260;-39
2024/04/15 07:54:32;;;;;;;7.22;3.75;;;13.80;79.10;;;15.36;57.71;97284.00;5447538;26;20369;-39
2024/04/15 07:57:00;;;;;;;7.75;5.30;;;13.70;78.40;;;15.26;57.56;97291.59;5449179;26;20027;-39
2024/04/15 07:59:27;;;;;;;4.70;3.40;;;13.70;80.10;;;15.31;57.93;97281.09;5449246;26;20355;-39
2024/04/15 08:01:55;;;;;;;6.43;3.90;;;13.70;80.60;;;15.32;57.95;97278.22;5416897;26;20047;-39
2024/04/15 08:04:24;;;;;;;5.15;4.65;;;13.60;81.30;;;15.35;58.24;97268.94;5448678;26;20043;-39
2024/04/15 08:06:51;;;;;;;6.28;3.83;;;13.70;82.80;;;15.40;58.64;97261.13;5448663;26;20050;-39
2024/04/15 08:09:39;;;;;;;7.45;5.15;;;13.70;84.20;;;15.47;58.66;97256.59;5448984;26;20034;-39
2024/04/15 08:12:07;;;;;;;7.93;4.72;;;13.70;83.30;;;15.57;58.43;97253.53;5449209;26;20030;-39
2024/04/15 08:14:35;;;;;;;7.72;4.05;;;13.80;83.60;;;15.49;58.36;97242.97;5448395;26;20491;-39
2024/04/15 08:17:03;;;;;;;8.75;4.88;;;13.70;82.20;;;15.52;58.09;97242.56;5448508;26;20023;-39
2024/04/15 08:19:30;;;;;;;7.18;4.60;;;13.70;82.90;;;15.43;58.24;97235.72;5448435;26;20043;-39
2024/04/15 08:21:59;;;;;;;6.30;4.55;;;13.60;82.10;;;15.52;58.25;97234.53;5448709;26;20351;-39
2024/04/15 08:24:27;;;;;;;5.25;3.90;;;13.70;82.80;;;15.47;58.37;97234.31;5448426;26;20471;-39
2024/04/15 08:26:55;;;;;;;8.13;5.55;;;13.70;83.30;;;15.48;58.76;97244.84;5448915;26;20030;-39
2024/04/15 08:29:23;;;;;;;7.78;4.45;;;13.70;83.00;;;15.47;58.36;97243.19;5447707;26;20466;-39
2024/04/15 08:31:50;;;;;;;7.45;5.43;;;13.70;81.50;;;15.59;58.25;97231.88;5452213;26;20038;-39
2024/04/15 08:34:22;;;;;;;7.82;5.22;;;13.80;82.30;;;15.66;57.98;97230.00;5438190;26;20038;-39
2024/04/15 08:36:50;;;;;;;7.35;4.88;;;13.90;82.20;;;15.62;58.13;97228.78;5452179;26;20031;-40
2024/04/15 08:39:18;;;;;;;7.40;4.75;;;13.80;81.80;;;15.70;58.19;97221.38;5399755;26;20515;-39
2024/04/15 08:41:53;;;;;;;6.90;4.97;;;13.90;82.90;;;15.84;58.45;97214.19;5439327;26;20069;-40
2024/04/15 08:44:33;;;;;;;6.88;4.35;;;14.10;83.40;;;15.95;57.86;97212.75;5412454;26;20039;-39
2024/04/15 08:47:12;;;;;;;6.10;5.20;;;14.20;81.00;;;15.97;57.38;97210.66;5451945;26;20035;-39
2024/04/15 08:49:40;;;;;;;6.55;4.95;;;14.20;80.60;;;15.99;57.52;97218.53;5450589;26;20035;-39
2024/04/15 08:52:14;;;;;;;9.95;5.13;;;14.30;79.90;;;15.85;57.63;97225.75;5390784;26;20030;-39
2024/04/15 08:54:42;;;;;;;5.97;4.45;;;14.20;80.30;;;15.78;57.74;97222.22;5419952;26;20038;-39
2024/04/15 08:57:12;;;;;;;9.18;5.40;;;14.00;81.00;;;15.83;58.15;97222.44;5452008;26;20047;-40
2024/04/15 08:59:44;;;;;;;8.82;4.95;;;14.00;81.70;;;15.79;58.34;97219.34;5420571;26;20035;-39
2024/04/15 09:02:16;;;;;;;8.75;5.28;;;14.00;82.00;;;15.88;57.70;97212.75;5452114;26;20023;-39
2024/04/15 09:04:44;;;;;;;8.15;4.82;;;14.10;81.00;;;16.00;57.82;97209.44;5418919;26;20027;-39
2024/04/15 09:07:12;;;;;;;8.68;4.80;;;14.20;81.40;;;16.08;57.63;97196.63;5452064;26;20031;-39
2024/04/15 09:09:40;;;;;;;7.65;3.88;;;14.30;80.70;;;16.20;57.35;97202.19;5451714;26;20039;-39
2024/04/15 09:12:08;;;;;;;5.50;4.57;;;14.50;78.90;;;16.26;56.79;97201.38;5451599;26;20046;-39
2024/04/15 09:14:35;;;;;;;7.88;5.00;;;14.60;78.10;;;16.31;56.79;97204.25;5451071;26;20043;-39
2024/04/15 09:17:06;;;;;;;9.07;6.45;;;14.60;77.60;;;16.29;56.52;97211.72;5450655;26;20002;-39
2024/04/15 09:19:34;;;;;;;7.65;5.53;;;14.60;77.50;;;16.27;56.35;97203.03;5450334;26;20030;-39
2024/04/15 09:22:02;;;;;;;7.28;4.53;;;14.50;78.00;;;16.35;56.09;97212.72;5451342;26;20034;-39
2024/04/15 09:24:29;;;;;;;6.63;5.10;;;14.60;75.90;;;16.23;56.18;97207.16;5418947;26;20035;-39
2024/04/15 09:26:57;;;;;;;7.10;5.22;;;14.40;77.20;;;16.23;56.36;97191.06;5451585;26;20375;-39
2024/04/15 09:29:25;;;;;;;7.65;4.90;;;14.40;78.10;;;16.14;56.66;97185.06;5418430;26;20035;-38
2024/04/15 09:31:54;;;;;;;7.60;5.00;;;14.40;78.40;;;16.21;56.52;97186.94;5451297;26;20406;-38
2024/04/15 09:34:22;;;;;;;7.50;4.70;;;14.50;77.10;;;16.27;56.11;97181.53;5417984;26;20031;-39
2024/04/15 09:36:58;;;;;;;6.75;4.57;;;14.60;76.40;;;16.23;56.04;97180.31;5451373;26;20035;-39
2024/04/15 09:39:27;;;;;;;7.20;4.60;;;14.50;75.80;;;16.14;56.14;97182.38;5406164;26;20524;-39
2024/04/15 09:41:59;;;;;;;5.20;4.18;;;14.40;76.50;;;16.23;56.02;97182.19;5451132;26;20385;-39
2024/04/15 09:44:29;;;;;;;4.72;4.30;;;14.50;76.50;;;16.30;55.53;97182.97;5419904;26;20038;-38
2024/04/15 09:47:01;;;;;;;5.30;3.80;;;14.60;75.20;;;16.27;55.44;97178.84;5419506;26;20047;-39
2024/04/15 09:49:30;;;;;;;7.32;4.63;;;14.50;75.80;;;16.24;55.64;97178.44;5437494;26;20034;-39
2024/04/15 09:52:05;;;;;;;6.30;4.20;;;14.50;75.80;;;16.28;55.77;97174.31;5451385;26;20034;-38
2024/04/15 09:54:41;;;;;;;6.10;4.03;;;14.60;75.50;;;16.36;55.57;97162.50;5439048;26;20031;-39
2024/04/15 09:57:19;;;;;;;4.45;3.58;;;14.70;75.70;;;16.49;55.19;97151.75;5434257;26;20385;-38
2024/04/15 09:59:56;;;;;;;5.78;3.75;;;14.90;73.80;;;16.59;54.84;97138.69;5451408;26;20478;-39
2024/04/15 10:02:36;;;;;;;5.05;3.55;;;15.00;71.50;;;16.66;54.67;97131.44;5450922;26;20545;-39
2024/04/15 10:05:30;;;;;;;5.80;3.63;;;15.10;72.60;;;16.82;54.38;97119.41;5420022;26;20042;-42
2024/04/15 10:07:58;;;;;;;5.25;2.95;;;15.40;71.30;;;17.02;54.53;97113.09;5404963;26;20034;-38
2024/04/15 10:10:28;;;;;;;9.18;3.40;;;15.60;71.00;;;17.09;53.48;97114.72;5449571;26;20272;-40
2024/04/15 10:13:03;;;;;;;4.53;3.50;;;15.60;69.70;;;17.10;53.26;97119.06;5450963;26;20494;-39
2024/04/15 10:15:39;;;;;;;4.03;3.00;;;15.60;69.60;;;17.22;53.12;97110.31;5408377;26;20042;-39
2024/04/15 10:18:12;;;;;;;4.45;2.80;;;15.80;69.20;;;17.30;52.91;97112.75;5418968;26;20058;-39
2024/04/15 10:20:43;;;;;;;3.78;3.13;;;15.80;68.20;;;17.29;52.02;97120.00;5417290;26;20031;-40
2024/04/15 10:23:15;;;;;;;3.67;3.28;;;15.80;66.30;;;17.18;51.83;97109.91;5419072;26;20605;-40
2024/04/15 10:25:43;;;;;;;4.15;2.72;;;15.70;67.20;;;17.32;52.60;97100.72;5450045;26;20026;-39